createdAt,value
2022-11-01T00:00:39.894Z,13.25
2022-11-01T00:01:40.285Z,13.50
2022-11-01T00:02:40.496Z,13.50
2022-11-01T00:03:40.761Z,13.51
2022-11-01T00:04:41.101Z,13.50
2022-11-01T00:05:41.360Z,13.53
2022-11-01T00:06:41.672Z,13.50
2022-11-01T00:07:41.970Z,13.53
2022-11-01T00:08:42.279Z,13.59
2022-11-01T00:09:42.615Z,13.64
2022-11-01T00:10:42.892Z,16.74
2022-11-01T00:11:43.200Z,16.73
2022-11-01T00:12:43.521Z,13.67
2022-11-01T00:13:43.819Z,13.66
2022-11-01T00:14:44.137Z,13.67
2022-11-01T00:15:44.440Z,13.70
2022-11-01T00:16:44.762Z,13.66
2022-11-01T00:17:45.062Z,13.68
2022-11-01T00:18:45.380Z,13.56
2022-11-01T00:19:45.712Z,13.51
2022-11-01T00:20:45.983Z,13.50
2022-11-01T00:21:46.281Z,13.50
2022-11-01T00:22:46.594Z,13.54
2022-11-01T00:23:46.914Z,13.52
2022-11-01T00:24:47.236Z,13.50
2022-11-01T00:25:47.514Z,13.50
2022-11-01T00:27:48.066Z,13.51
2022-11-01T00:28:48.361Z,13.52
2022-11-01T00:29:48.692Z,13.50
2022-11-01T00:30:48.992Z,13.50
2022-11-01T00:31:49.314Z,13.50
2022-11-01T00:32:49.614Z,13.50
2022-11-01T00:33:49.919Z,13.50
2022-11-01T00:34:50.238Z,13.54
2022-11-01T00:35:50.491Z,13.54
2022-11-01T00:36:50.816Z,13.54
2022-11-01T00:37:51.112Z,13.54
2022-11-01T00:38:51.421Z,13.58
2022-11-01T00:39:51.743Z,13.58
2022-11-01T00:40:52.045Z,13.58
2022-11-01T00:41:52.351Z,13.58
2022-11-01T00:42:52.651Z,13.58
2022-11-01T00:43:52.951Z,13.58
2022-11-01T00:44:53.286Z,13.58
2022-11-01T00:45:53.556Z,13.59
2022-11-01T00:46:53.866Z,13.58
2022-11-01T00:47:54.162Z,13.58
2022-11-01T00:48:54.483Z,13.50
2022-11-01T00:49:54.817Z,13.51
2022-11-01T00:50:55.082Z,13.50
2022-11-01T00:51:55.407Z,13.56
2022-11-01T00:52:55.725Z,13.58
2022-11-01T00:53:56.029Z,13.58
2022-11-01T00:54:56.353Z,13.58
2022-11-01T00:55:56.675Z,13.51
2022-11-01T00:56:56.987Z,13.51
2022-11-01T00:57:57.293Z,13.53
2022-11-01T00:58:57.594Z,13.52
2022-11-01T00:59:57.932Z,13.61
2022-11-01T01:00:58.241Z,13.50
2022-11-01T01:01:58.634Z,13.51
2022-11-01T01:02:58.952Z,13.61
2022-11-01T01:03:59.135Z,13.61
2022-11-01T01:04:59.453Z,13.60
2022-11-01T01:05:59.768Z,13.58
2022-11-01T01:07:00.074Z,13.58
2022-11-01T01:08:00.388Z,13.58
2022-11-01T01:09:00.689Z,13.53
2022-11-01T01:10:01.006Z,13.51
2022-11-01T01:11:01.328Z,13.54
2022-11-01T01:12:01.647Z,13.55
2022-11-01T01:13:02.263Z,13.53
2022-11-01T01:14:02.328Z,13.52
2022-11-01T01:15:02.604Z,13.50
2022-11-01T01:16:02.915Z,12.99
2022-11-01T01:17:03.216Z,13.00
2022-11-01T01:18:03.906Z,13.02
2022-11-01T01:19:03.803Z,13.01
2022-11-01T01:20:04.129Z,13.01
2022-11-01T01:21:04.397Z,13.09
2022-11-01T01:22:04.710Z,13.17
2022-11-01T01:23:05.007Z,13.26
2022-11-01T01:24:05.319Z,13.32
2022-11-01T01:25:05.671Z,13.33
2022-11-01T01:26:05.936Z,13.50
2022-11-01T01:27:06.238Z,13.50
2022-11-01T01:28:06.545Z,13.50
2022-11-01T01:29:06.848Z,13.57
2022-11-01T01:30:07.169Z,13.58
2022-11-01T01:31:07.469Z,13.58
2022-11-01T01:32:07.778Z,13.58
2022-11-01T01:33:08.143Z,13.58
2022-11-01T01:34:08.400Z,13.58
2022-11-01T01:35:08.741Z,13.50
2022-11-01T01:36:09.017Z,13.52
2022-11-01T01:37:09.307Z,13.50
2022-11-01T01:38:09.620Z,13.59
2022-11-01T01:39:09.939Z,13.59
2022-11-01T01:40:10.247Z,13.53
2022-11-01T01:41:10.568Z,13.52
2022-11-01T01:42:10.852Z,13.53
2022-11-01T01:43:11.181Z,13.53
2022-11-01T01:44:11.452Z,13.52
2022-11-01T01:45:11.758Z,13.52
2022-11-01T01:46:12.061Z,13.54
2022-11-01T01:47:12.381Z,13.54
2022-11-01T01:48:12.678Z,13.52
2022-11-01T01:49:12.981Z,13.50
2022-11-01T01:50:13.337Z,13.52
2022-11-01T01:51:13.610Z,13.52
2022-11-01T01:52:13.909Z,13.50
2022-11-01T01:53:14.231Z,13.52
2022-11-01T01:54:14.516Z,13.50
2022-11-01T01:55:14.829Z,13.64
2022-11-01T01:56:15.133Z,13.65
2022-11-01T01:57:15.452Z,13.64
2022-11-01T01:58:15.756Z,13.62
2022-11-01T01:59:16.050Z,13.59
2022-11-01T02:00:16.370Z,13.58
2022-11-01T02:01:16.780Z,13.53
2022-11-01T02:02:17.066Z,13.51
2022-11-01T02:03:17.317Z,13.50
2022-11-01T02:04:17.621Z,13.50
2022-11-01T02:05:17.943Z,13.50
2022-11-01T02:06:18.272Z,13.50
2022-11-01T02:07:18.543Z,13.50
2022-11-01T02:08:18.830Z,13.50
2022-11-01T02:09:19.151Z,13.50
2022-11-01T02:10:19.484Z,13.50
2022-11-01T02:11:19.764Z,12.93
2022-11-01T02:12:20.088Z,12.94
2022-11-01T02:13:20.402Z,12.93
2022-11-01T02:14:20.704Z,12.93
2022-11-01T02:15:21.044Z,12.93
2022-11-01T02:16:21.302Z,12.93
2022-11-01T02:17:21.602Z,12.93
2022-11-01T02:18:21.901Z,12.86
2022-11-01T02:19:22.201Z,12.85
2022-11-01T02:20:22.555Z,12.85
2022-11-01T02:21:22.834Z,12.91
2022-11-01T02:22:23.154Z,12.89
2022-11-01T02:23:23.453Z,12.85
2022-11-01T02:24:23.751Z,12.86
2022-11-01T02:25:24.072Z,12.86
2022-11-01T02:26:24.336Z,12.87
2022-11-01T02:27:24.633Z,12.85
2022-11-01T02:28:24.934Z,13.52
2022-11-01T02:29:25.254Z,13.50
2022-11-01T02:30:25.586Z,13.50
2022-11-01T02:31:25.852Z,13.51
2022-11-01T02:32:26.165Z,13.51
2022-11-01T02:33:26.462Z,13.51
2022-11-01T02:34:26.767Z,13.54
2022-11-01T02:35:27.095Z,13.52
2022-11-01T02:36:27.462Z,13.50
2022-11-01T02:37:27.731Z,13.50
2022-11-01T02:38:28.019Z,13.50
2022-11-01T02:39:28.304Z,13.51
2022-11-01T02:40:28.604Z,13.53
2022-11-01T02:41:28.893Z,13.60
2022-11-01T02:42:29.191Z,13.50
2022-11-01T02:43:29.495Z,13.50
2022-11-01T02:44:29.775Z,13.67
2022-11-01T02:45:30.074Z,13.68
2022-11-01T02:46:30.389Z,13.67
2022-11-01T02:47:30.671Z,13.75
2022-11-01T02:48:30.978Z,13.76
2022-11-01T02:49:31.264Z,13.79
2022-11-01T02:50:31.587Z,16.74
2022-11-01T02:51:31.855Z,16.72
2022-11-01T02:52:32.144Z,16.72
2022-11-01T02:53:32.448Z,16.73
2022-11-01T02:54:32.733Z,16.73
2022-11-01T02:55:33.105Z,16.80
2022-11-01T02:56:33.338Z,16.72
2022-11-01T02:57:33.667Z,16.80
2022-11-01T02:58:33.915Z,16.80
2022-11-01T02:59:34.199Z,16.80
2022-11-01T03:00:34.496Z,16.84
2022-11-01T03:01:34.865Z,16.73
2022-11-01T03:02:35.039Z,16.88
2022-11-01T03:03:35.326Z,16.88
2022-11-01T03:04:35.614Z,16.88
2022-11-01T03:05:35.918Z,16.91
2022-11-01T03:06:36.204Z,17.06
2022-11-01T03:07:36.499Z,17.08
2022-11-01T03:08:36.798Z,17.05
2022-11-01T03:09:37.083Z,17.06
2022-11-01T03:10:37.386Z,17.10
2022-11-01T03:11:37.680Z,17.13
2022-11-01T03:12:37.967Z,16.75
2022-11-01T03:13:38.259Z,16.72
2022-11-01T03:14:38.559Z,16.75
2022-11-01T03:15:38.867Z,16.72
2022-11-01T03:16:39.146Z,16.73
2022-11-01T03:17:39.457Z,16.72
2022-11-01T03:18:39.737Z,16.72
2022-11-01T03:19:40.029Z,16.73
2022-11-01T03:20:40.400Z,16.72
2022-11-01T03:21:40.637Z,16.72
2022-11-01T03:22:40.944Z,16.72
2022-11-01T03:23:41.232Z,16.80
2022-11-01T03:24:41.530Z,16.81
2022-11-01T03:25:41.848Z,16.81
2022-11-01T03:26:42.139Z,16.80
2022-11-01T03:27:42.456Z,16.81
2022-11-01T03:28:42.796Z,16.72
2022-11-01T03:29:43.052Z,16.72
2022-11-01T03:30:43.362Z,16.72
2022-11-01T03:31:43.629Z,16.72
2022-11-01T03:32:43.934Z,16.72
2022-11-01T03:33:44.210Z,16.72
2022-11-01T03:34:44.512Z,16.78
2022-11-01T03:35:44.851Z,16.80
2022-11-01T03:36:45.103Z,16.78
2022-11-01T03:37:45.388Z,16.72
2022-11-01T03:38:45.679Z,16.78
2022-11-01T03:39:45.979Z,16.72
2022-11-01T03:40:46.299Z,16.76
2022-11-01T03:41:46.573Z,16.72
2022-11-01T03:42:46.851Z,16.72
2022-11-01T03:43:47.151Z,16.74
2022-11-01T03:44:47.445Z,16.72
2022-11-01T03:45:47.747Z,16.72
2022-11-01T03:46:48.043Z,16.80
2022-11-01T03:47:48.341Z,16.80
2022-11-01T03:48:48.644Z,16.72
2022-11-01T03:49:48.931Z,16.72
2022-11-01T03:50:49.261Z,16.73
2022-11-01T03:51:49.531Z,16.72
2022-11-01T03:52:49.825Z,16.84
2022-11-01T03:53:50.111Z,16.80
2022-11-01T03:54:50.399Z,16.80
2022-11-01T03:55:50.701Z,16.80
2022-11-01T03:56:50.972Z,16.80
2022-11-01T03:57:51.284Z,16.85
2022-11-01T03:58:51.570Z,16.72
2022-11-01T03:59:51.860Z,16.84
2022-11-01T04:00:52.225Z,16.85
2022-11-01T04:01:52.564Z,16.80
2022-11-01T04:02:52.785Z,16.81
2022-11-01T04:03:53.094Z,16.81
2022-11-01T04:04:53.382Z,16.72
2022-11-01T04:05:53.712Z,16.72
2022-11-01T04:06:53.963Z,16.72
2022-11-01T04:07:54.272Z,16.72
2022-11-01T04:08:54.562Z,16.85
2022-11-01T04:09:54.863Z,16.72
2022-11-01T04:10:55.163Z,16.76
2022-11-01T04:11:55.452Z,16.76
2022-11-01T04:12:55.765Z,16.76
2022-11-01T04:13:56.065Z,16.76
2022-11-01T04:14:56.366Z,16.72
2022-11-01T04:15:56.683Z,16.72
2022-11-01T04:16:56.947Z,16.84
2022-11-01T04:17:57.242Z,16.88
2022-11-01T04:18:57.532Z,16.85
2022-11-01T04:19:57.813Z,16.84
2022-11-01T04:20:58.156Z,16.80
2022-11-01T04:21:58.415Z,16.84
2022-11-01T04:22:58.766Z,16.82
2022-11-01T04:23:58.994Z,16.80
2022-11-01T04:24:59.308Z,16.80
2022-11-01T04:25:59.658Z,16.80
2022-11-01T04:26:59.904Z,16.73
2022-11-01T04:28:00.206Z,16.72
2022-11-01T04:29:00.503Z,16.80
2022-11-01T04:30:00.808Z,16.73
2022-11-01T04:31:01.148Z,16.80
2022-11-01T04:32:01.393Z,16.80
2022-11-01T04:33:01.890Z,16.80
2022-11-01T04:34:01.907Z,16.78
2022-11-01T04:35:02.291Z,16.76
2022-11-01T04:36:02.589Z,16.76
2022-11-01T04:37:02.845Z,16.76
2022-11-01T04:38:03.571Z,16.72
2022-11-01T04:39:03.423Z,16.77
2022-11-01T04:40:03.705Z,16.72
2022-11-01T04:41:04.026Z,16.72
2022-11-01T04:42:04.330Z,16.74
2022-11-01T04:43:04.617Z,16.72
2022-11-01T04:44:04.921Z,16.72
2022-11-01T04:45:05.197Z,16.89
2022-11-01T04:46:05.549Z,16.90
2022-11-01T04:47:05.814Z,16.92
2022-11-01T04:48:06.098Z,16.96
2022-11-01T04:49:06.387Z,16.99
2022-11-01T04:50:06.726Z,17.04
2022-11-01T04:51:07.086Z,17.04
2022-11-01T04:52:07.229Z,17.04
2022-11-01T04:53:07.516Z,16.99
2022-11-01T04:54:07.823Z,16.96
2022-11-01T04:55:08.106Z,16.99
2022-11-01T04:56:08.418Z,16.96
2022-11-01T04:57:08.729Z,16.89
2022-11-01T04:58:09.016Z,16.88
2022-11-01T04:59:09.318Z,16.90
2022-11-01T05:00:09.619Z,16.89
2022-11-01T05:01:10.120Z,16.88
2022-11-01T05:02:10.318Z,16.88
2022-11-01T05:03:10.571Z,16.93
2022-11-01T05:04:10.879Z,16.92
2022-11-01T05:05:11.178Z,16.89
2022-11-01T05:06:11.513Z,16.89
2022-11-01T05:07:11.769Z,16.92
2022-11-01T05:08:12.068Z,16.95
2022-11-01T05:09:12.379Z,16.91
2022-11-01T05:10:12.697Z,16.90
2022-11-01T05:11:12.990Z,16.97
2022-11-01T05:12:13.292Z,16.95
2022-11-01T05:13:13.595Z,16.95
2022-11-01T05:14:13.887Z,16.90
2022-11-01T05:15:14.178Z,16.88
2022-11-01T05:16:19.317Z,16.88
2022-11-01T05:17:15.731Z,16.88
2022-11-01T05:18:15.100Z,16.88
2022-11-01T05:19:15.350Z,16.88
2022-11-01T05:20:15.655Z,16.88
2022-11-01T05:21:15.957Z,16.90
2022-11-01T05:22:16.252Z,16.88
2022-11-01T05:23:16.543Z,16.91
2022-11-01T05:24:16.863Z,16.88
2022-11-01T05:25:17.149Z,16.88
2022-11-01T05:26:17.461Z,16.89
2022-11-01T05:27:17.761Z,16.91
2022-11-01T05:28:18.050Z,16.88
2022-11-01T05:29:24.917Z,17.04
2022-11-01T05:30:19.570Z,17.04
2022-11-01T05:31:18.968Z,16.88
2022-11-01T05:32:19.181Z,16.88
2022-11-01T05:33:19.480Z,16.88
2022-11-01T05:34:19.771Z,16.76
2022-11-01T05:35:20.066Z,16.72
2022-11-01T05:36:20.391Z,16.72
2022-11-01T05:37:24.476Z,16.80
2022-11-01T05:38:21.877Z,16.80
2022-11-01T05:39:21.173Z,16.78
2022-11-01T05:40:21.462Z,16.73
2022-11-01T05:41:21.775Z,16.73
2022-11-01T05:42:22.023Z,16.72
2022-11-01T05:43:22.329Z,16.76
2022-11-01T05:44:22.602Z,16.74
2022-11-01T05:45:22.906Z,16.72
2022-11-01T05:46:23.202Z,13.84
2022-11-01T05:47:23.506Z,13.83
2022-11-01T05:48:23.805Z,13.72
2022-11-01T05:49:24.103Z,13.66
2022-11-01T05:50:24.383Z,13.63
2022-11-01T05:51:24.693Z,13.60
2022-11-01T05:52:24.982Z,13.58
2022-11-01T05:53:32.303Z,13.50
2022-11-01T05:54:27.203Z,13.50
2022-11-01T05:55:25.771Z,13.50
2022-11-01T05:56:26.085Z,13.64
2022-11-01T05:57:30.910Z,13.59
2022-11-01T05:58:30.539Z,13.59
2022-11-01T05:59:26.860Z,13.50
2022-11-01T06:00:27.170Z,13.50
2022-11-01T06:01:27.524Z,13.51
2022-11-01T06:02:27.827Z,13.58
2022-11-01T06:03:28.060Z,13.51
2022-11-01T06:04:28.391Z,13.53
2022-11-01T06:05:28.672Z,13.52
2022-11-01T06:06:28.932Z,13.50
2022-11-01T06:07:29.231Z,13.50
2022-11-01T06:08:29.538Z,12.85
2022-11-01T06:09:29.821Z,13.46
2022-11-01T06:10:30.116Z,13.46
2022-11-01T06:11:30.444Z,13.44
2022-11-01T06:12:30.715Z,13.44
2022-11-01T06:13:31.025Z,13.42
2022-11-01T06:14:31.337Z,13.42
2022-11-01T06:15:34.314Z,13.43
2022-11-01T06:16:32.907Z,13.42
2022-11-01T06:17:32.212Z,13.44
2022-11-01T06:18:32.513Z,13.42
2022-11-01T06:19:32.812Z,13.42
2022-11-01T06:20:33.121Z,13.42
2022-11-01T06:21:33.446Z,13.44
2022-11-01T06:22:33.727Z,13.43
2022-11-01T06:23:34.037Z,13.42
2022-11-01T06:24:34.346Z,13.33
2022-11-01T06:25:34.644Z,13.33
2022-11-01T06:26:34.977Z,13.36
2022-11-01T06:27:35.248Z,13.35
2022-11-01T06:28:35.545Z,13.22
2022-11-01T06:29:35.856Z,13.22
2022-11-01T06:30:36.178Z,13.18
2022-11-01T06:31:36.477Z,13.17
2022-11-01T06:32:36.768Z,13.23
2022-11-01T06:33:37.085Z,13.21
2022-11-01T06:34:40.893Z,13.19
2022-11-01T06:35:38.665Z,13.17
2022-11-01T06:36:38.035Z,13.17
2022-11-01T06:37:38.336Z,13.21
2022-11-01T06:38:38.614Z,13.21
2022-11-01T06:39:38.925Z,13.20
2022-11-01T06:40:39.275Z,13.20
2022-11-01T06:41:39.576Z,13.18
2022-11-01T06:42:45.392Z,13.17
2022-11-01T06:43:41.129Z,13.17
2022-11-01T06:44:40.344Z,13.21
2022-11-01T06:45:40.665Z,13.23
2022-11-01T06:46:40.995Z,13.19
2022-11-01T06:47:41.388Z,13.21
2022-11-01T06:48:41.636Z,13.22
2022-11-01T06:49:41.968Z,13.27
2022-11-01T06:50:42.289Z,13.17
2022-11-01T06:51:42.626Z,13.19
2022-11-01T06:52:42.929Z,13.19
2022-11-01T06:53:43.257Z,13.21
2022-11-01T06:54:43.579Z,13.25
2022-11-01T06:55:43.920Z,13.25
2022-11-01T06:56:44.280Z,13.26
2022-11-01T06:57:44.578Z,13.33
2022-11-01T06:58:44.894Z,13.35
2022-11-01T06:59:45.220Z,13.35
2022-11-01T07:00:45.569Z,13.39
2022-11-01T07:01:46.014Z,13.36
2022-11-01T07:02:46.145Z,13.42
2022-11-01T07:03:46.437Z,13.43
2022-11-01T07:04:46.763Z,13.42
2022-11-01T07:05:47.091Z,13.42
2022-11-01T07:06:47.418Z,13.42
2022-11-01T07:07:47.769Z,13.42
2022-11-01T07:08:48.037Z,12.85
2022-11-01T07:09:48.371Z,12.85
2022-11-01T07:10:48.688Z,12.90
2022-11-01T07:11:49.011Z,12.93
2022-11-01T07:12:49.348Z,13.50
2022-11-01T07:13:49.680Z,13.52
2022-11-01T07:14:50.010Z,13.54
2022-11-01T07:15:50.348Z,13.50
2022-11-01T07:16:50.669Z,13.50
2022-11-01T07:17:51.022Z,13.51
2022-11-01T07:18:51.298Z,13.50
2022-11-01T07:19:51.641Z,13.59
2022-11-01T07:20:51.959Z,13.59
2022-11-01T07:21:52.282Z,13.58
2022-11-01T07:22:52.619Z,13.50
2022-11-01T07:23:52.921Z,13.51
2022-11-01T07:24:53.238Z,13.54
2022-11-01T07:25:53.586Z,13.50
2022-11-01T07:26:54.732Z,13.50
2022-11-01T07:27:54.229Z,13.03
2022-11-01T07:28:54.546Z,13.01
2022-11-01T07:29:54.912Z,12.93
2022-11-01T07:30:55.099Z,12.89
2022-11-01T07:31:55.422Z,12.87
2022-11-01T07:32:55.810Z,12.93
2022-11-01T07:33:55.979Z,12.93
2022-11-01T07:34:56.356Z,12.85
2022-11-01T07:35:56.664Z,12.85
2022-11-01T07:36:56.983Z,13.13
2022-11-01T07:37:57.344Z,13.09
2022-11-01T07:38:57.641Z,13.09
2022-11-01T07:39:57.989Z,13.04
2022-11-01T07:40:58.320Z,13.01
2022-11-01T07:41:58.742Z,12.91
2022-11-01T07:42:58.991Z,12.90
2022-11-01T07:43:59.171Z,12.85
2022-11-01T07:44:59.515Z,12.85
2022-11-01T07:45:59.904Z,12.86
2022-11-01T07:47:00.225Z,12.85
2022-11-01T07:48:00.871Z,12.86
2022-11-01T07:49:00.864Z,12.89
2022-11-01T07:50:01.176Z,12.86
2022-11-01T07:51:01.516Z,12.85
2022-11-01T07:52:03.044Z,12.85
2022-11-01T07:53:02.122Z,12.86
2022-11-01T07:54:02.433Z,12.85
2022-11-01T07:55:02.754Z,12.95
2022-11-01T07:56:03.105Z,13.42
2022-11-01T07:57:03.446Z,13.50
2022-11-01T07:58:04.141Z,17.12
2022-11-01T07:59:04.081Z,17.54
2022-11-01T08:00:04.454Z,17.47
2022-11-01T08:01:04.803Z,16.74
2022-11-01T08:02:07.874Z,16.77
2022-11-01T08:03:05.610Z,16.73
2022-11-01T08:04:05.593Z,16.74
2022-11-01T08:05:05.922Z,16.76
2022-11-01T08:06:06.263Z,16.74
2022-11-01T08:07:06.597Z,14.18
2022-11-01T08:08:07.094Z,14.22
2022-11-01T08:09:07.280Z,14.30
2022-11-01T08:10:07.626Z,16.81
2022-11-01T08:11:07.967Z,16.75
2022-11-01T08:12:08.302Z,17.36
2022-11-01T08:13:08.653Z,16.80
2022-11-01T08:14:12.193Z,17.02
2022-11-01T08:15:09.277Z,16.76
2022-11-01T08:17:34.887Z,17.44
2022-11-01T08:18:36.761Z,17.36
2022-11-01T08:19:35.385Z,16.72
2022-11-01T08:20:35.724Z,17.15
2022-11-01T08:21:36.074Z,17.04
2022-11-01T08:22:36.464Z,16.88
2022-11-01T08:23:36.768Z,16.75
2022-11-01T08:24:44.106Z,14.47
2022-11-01T08:25:37.355Z,14.14
2022-11-01T08:26:37.698Z,14.19
2022-11-01T08:27:38.026Z,14.18
2022-11-01T08:28:38.388Z,13.59
2022-11-01T08:29:38.693Z,13.52
2022-11-01T08:30:39.040Z,13.33
2022-11-01T08:31:39.407Z,13.26
2022-11-01T08:32:39.696Z,13.21
2022-11-01T08:33:40.065Z,13.17
2022-11-01T08:34:40.345Z,13.18
2022-11-01T08:35:41.881Z,13.50
2022-11-01T08:36:40.950Z,13.64
2022-11-01T08:37:48.198Z,16.88
2022-11-01T08:38:41.468Z,17.37
2022-11-01T08:39:41.789Z,17.54
2022-11-01T08:40:42.150Z,17.44
2022-11-01T08:41:42.494Z,17.30
2022-11-01T08:42:42.809Z,17.26
2022-11-01T08:43:43.173Z,16.74
2022-11-01T08:44:43.484Z,16.74
2022-11-01T08:45:43.835Z,16.74
2022-11-01T08:46:44.143Z,16.74
2022-11-01T08:47:44.482Z,16.73
2022-11-01T08:48:44.840Z,14.14
2022-11-01T08:49:45.050Z,14.15
2022-11-01T08:50:45.384Z,13.90
2022-11-01T08:51:45.743Z,13.90
2022-11-01T08:54:07.963Z,16.81
2022-11-01T08:55:08.266Z,16.89
2022-11-01T08:56:08.498Z,17.04
2022-11-01T08:57:08.830Z,19.79
2022-11-01T08:58:09.175Z,19.38
2022-11-01T08:59:09.528Z,20.26
2022-11-01T09:00:09.852Z,1.49
2022-11-01T09:01:10.305Z,1.30
2022-11-01T09:02:10.616Z,2.54
2022-11-01T09:03:10.739Z,2.59
2022-11-01T09:04:11.063Z,2.63
2022-11-01T09:05:11.377Z,2.74
2022-11-01T09:06:11.718Z,2.96
2022-11-01T09:07:19.037Z,3.55
2022-11-01T09:08:12.309Z,21.97
2022-11-01T09:09:12.556Z,22.12
2022-11-01T09:12:33.731Z,22.52
2022-11-01T09:13:34.037Z,21.89
2022-11-01T09:14:34.405Z,21.92
2022-11-01T09:15:34.696Z,21.88
2022-11-01T09:16:35.049Z,21.89
2022-11-01T09:17:35.381Z,22.52
2022-11-01T09:18:35.719Z,22.56
2022-11-01T09:19:36.101Z,22.04
2022-11-01T09:20:36.367Z,1.89
2022-11-01T09:21:36.698Z,1.26
2022-11-01T09:22:37.025Z,2.02
2022-11-01T09:23:37.358Z,1.29
2022-11-01T09:24:37.676Z,1.81
2022-11-01T09:25:38.006Z,1.28
2022-11-01T09:26:38.349Z,1.57
2022-11-01T09:27:38.675Z,1.33
2022-11-01T09:28:46.047Z,1.34
2022-11-01T09:29:39.318Z,1.27
2022-11-01T09:30:45.215Z,18.02
2022-11-01T09:31:40.904Z,17.78
2022-11-01T09:32:40.134Z,17.69
2022-11-01T09:33:40.462Z,17.45
2022-11-01T09:34:40.824Z,17.36
2022-11-01T09:35:41.127Z,17.37
2022-11-01T09:36:41.477Z,17.36
2022-11-01T09:37:41.822Z,16.88
2022-11-01T09:38:42.164Z,16.74
2022-11-01T09:42:03.414Z,16.90
2022-11-01T09:43:06.863Z,16.76
2022-11-01T09:44:04.020Z,16.80
2022-11-01T09:45:04.368Z,16.73
2022-11-01T09:46:04.575Z,16.74
2022-11-01T09:47:04.915Z,17.06
2022-11-01T09:48:05.704Z,17.04
2022-11-01T09:49:05.619Z,17.08
2022-11-01T09:50:05.979Z,17.05
2022-11-01T09:51:06.290Z,17.07
2022-11-01T09:52:06.606Z,17.04
2022-11-01T09:53:06.959Z,16.80
2022-11-01T09:54:07.286Z,16.73
2022-11-01T09:55:07.649Z,16.74
2022-11-01T09:56:07.938Z,16.72
2022-11-01T09:57:08.267Z,16.92
2022-11-01T09:58:08.611Z,16.82
2022-11-01T09:59:08.948Z,16.88
2022-11-01T10:00:09.287Z,16.89
2022-11-01T10:01:16.737Z,16.90
2022-11-01T10:02:10.178Z,16.76
2022-11-01T10:04:10.379Z,16.76
2022-11-01T10:05:13.096Z,16.76
2022-11-01T10:06:11.980Z,16.78
2022-11-01T10:07:11.231Z,16.82
2022-11-01T10:08:11.562Z,16.84
2022-11-01T10:09:11.889Z,16.83
2022-11-01T10:10:12.253Z,16.72
2022-11-01T10:11:12.553Z,16.72
2022-11-01T10:12:12.931Z,16.74
2022-11-01T10:13:13.242Z,16.72
2022-11-01T10:14:13.583Z,16.82
2022-11-01T10:15:13.943Z,16.82
2022-11-01T10:16:14.246Z,16.82
2022-11-01T10:17:14.451Z,16.84
2022-11-01T10:18:14.791Z,16.72
2022-11-01T10:19:15.140Z,16.86
2022-11-01T10:20:15.473Z,16.84
2022-11-01T10:21:15.694Z,16.84
2022-11-01T10:22:16.054Z,16.82
2022-11-01T10:23:16.271Z,16.84
2022-11-01T10:24:16.600Z,16.80
2022-11-01T10:25:16.941Z,16.80
2022-11-01T10:26:17.282Z,16.80
2022-11-01T10:27:17.637Z,16.83
2022-11-01T10:28:17.945Z,16.80
2022-11-01T10:29:18.287Z,16.83
2022-11-01T10:30:18.621Z,16.72
2022-11-01T10:31:18.955Z,16.75
2022-11-01T10:32:19.630Z,16.74
2022-11-01T10:33:19.645Z,16.73
2022-11-01T10:34:19.986Z,16.75
2022-11-01T10:35:20.313Z,16.72
2022-11-01T10:36:20.564Z,16.81
2022-11-01T10:37:20.971Z,16.80
2022-11-01T10:38:30.254Z,16.80
2022-11-01T10:39:53.519Z,16.76
2022-11-01T10:40:22.717Z,16.72
2022-11-01T10:41:21.957Z,16.78
2022-11-01T10:42:22.296Z,16.74
2022-11-01T10:43:22.646Z,16.72
2022-11-01T10:44:22.997Z,16.72
2022-11-01T10:45:23.323Z,16.72
2022-11-01T10:46:23.716Z,16.82
2022-11-01T10:47:23.916Z,16.83
2022-11-01T10:48:24.273Z,16.81
2022-11-01T10:49:24.783Z,16.82
2022-11-01T10:50:24.884Z,16.86
2022-11-01T10:51:27.835Z,16.88
2022-11-01T10:52:25.483Z,16.88
2022-11-01T10:53:25.827Z,16.90
2022-11-01T10:54:26.046Z,16.89
2022-11-01T10:55:26.384Z,16.89
2022-11-01T10:56:26.762Z,16.88
2022-11-01T10:57:27.044Z,16.96
2022-11-01T10:58:27.375Z,16.88
2022-11-01T10:59:27.726Z,16.90
2022-11-01T11:00:28.046Z,16.88
2022-11-01T11:01:28.743Z,16.88
2022-11-01T11:02:28.781Z,16.90
2022-11-01T11:03:28.957Z,16.88
2022-11-01T11:04:29.297Z,16.90
2022-11-01T11:07:50.569Z,16.90
2022-11-01T11:08:50.902Z,16.90
2022-11-01T11:09:51.995Z,16.88
2022-11-01T11:10:51.459Z,16.72
2022-11-01T11:11:51.789Z,16.74
2022-11-01T11:12:52.110Z,16.88
2022-11-01T11:13:52.443Z,16.77
2022-11-01T11:14:52.783Z,16.88
2022-11-01T11:15:53.090Z,16.88
2022-11-01T11:16:53.424Z,16.90
2022-11-01T11:17:53.726Z,16.92
2022-11-01T11:18:54.044Z,16.92
2022-11-01T11:19:54.390Z,16.92
2022-11-01T11:20:54.729Z,16.96
2022-11-01T11:21:55.377Z,16.96
2022-11-01T11:22:55.354Z,16.97
2022-11-01T11:23:55.656Z,16.96
2022-11-01T11:24:55.931Z,16.98
2022-11-01T11:25:56.245Z,17.00
2022-11-01T11:26:56.525Z,17.00
2022-11-01T11:27:56.874Z,17.02
2022-11-01T11:28:57.177Z,17.01
2022-11-01T11:29:57.494Z,17.00
2022-11-01T11:30:57.829Z,17.00
2022-11-01T11:31:58.142Z,17.03
2022-11-01T11:32:58.473Z,17.03
2022-11-01T11:33:58.847Z,17.36
2022-11-01T11:34:59.147Z,17.00
2022-11-01T11:35:59.447Z,17.04
2022-11-01T11:36:59.736Z,17.04
2022-11-01T11:38:00.511Z,16.97
2022-11-01T11:39:00.345Z,16.96
2022-11-01T11:40:00.687Z,16.98
2022-11-01T11:41:01.028Z,16.97
2022-11-01T11:42:01.333Z,16.96
2022-11-01T11:43:01.696Z,16.96
2022-11-01T11:44:01.996Z,16.96
2022-11-01T11:45:02.272Z,17.00
2022-11-01T11:46:02.604Z,16.98
2022-11-01T11:47:02.939Z,17.00
2022-11-01T11:48:03.527Z,16.98
2022-11-01T11:49:03.514Z,16.97
2022-11-01T11:50:03.824Z,16.92
2022-11-01T11:51:04.168Z,16.92
2022-11-01T11:52:04.405Z,16.90
2022-11-01T11:53:04.728Z,16.88
2022-11-01T11:54:05.063Z,16.88
2022-11-01T11:55:05.359Z,16.90
2022-11-01T11:56:05.588Z,16.89
2022-11-01T11:57:05.905Z,16.88
2022-11-01T11:58:06.248Z,16.91
2022-11-01T11:59:08.710Z,16.93
2022-11-01T12:00:06.759Z,16.92
2022-11-01T12:01:07.152Z,16.90
2022-11-01T12:02:09.605Z,16.90
2022-11-01T12:03:07.972Z,16.92
2022-11-01T12:04:07.900Z,16.92
2022-11-01T12:05:08.179Z,16.93
2022-11-01T12:06:08.505Z,16.90
2022-11-01T12:07:08.830Z,16.89
2022-11-01T12:08:09.156Z,16.92
2022-11-01T12:09:09.488Z,16.88
2022-11-01T12:10:09.816Z,16.88
2022-11-01T12:11:10.137Z,16.89
2022-11-01T12:12:10.472Z,16.89
2022-11-01T12:13:10.797Z,16.93
2022-11-01T12:14:11.138Z,16.92
2022-11-01T12:15:11.459Z,16.96
2022-11-01T12:16:11.736Z,16.98
2022-11-01T12:17:19.608Z,16.92
2022-11-01T12:18:15.580Z,17.38
2022-11-01T12:19:12.763Z,17.36
2022-11-01T12:20:12.959Z,17.36
2022-11-01T12:21:13.307Z,17.36
2022-11-01T12:22:13.626Z,17.41
2022-11-01T12:23:13.976Z,17.36
2022-11-01T12:24:14.453Z,17.36
2022-11-01T12:25:14.609Z,17.37
2022-11-01T12:26:16.612Z,17.40
2022-11-01T12:27:15.153Z,17.40
2022-11-01T12:28:15.462Z,17.40
2022-11-01T12:29:15.823Z,17.36
2022-11-01T12:30:16.032Z,17.36
2022-11-01T12:31:16.346Z,17.36
2022-11-01T12:32:16.661Z,17.38
2022-11-01T12:33:17.083Z,17.36
2022-11-01T12:34:17.263Z,17.38
2022-11-01T12:35:17.586Z,17.36
2022-11-01T12:36:17.886Z,17.36
2022-11-01T12:37:18.211Z,17.36
2022-11-01T12:38:18.503Z,16.99
2022-11-01T12:39:18.835Z,17.38
2022-11-01T12:40:19.117Z,17.38
2022-11-01T12:41:19.355Z,17.36
2022-11-01T12:42:23.710Z,17.36
2022-11-01T12:43:19.900Z,17.36
2022-11-01T12:44:20.335Z,17.38
2022-11-01T12:45:20.496Z,17.38
2022-11-01T12:46:20.815Z,17.36
2022-11-01T12:47:21.145Z,17.36
2022-11-01T12:48:21.479Z,17.38
2022-11-01T12:49:21.795Z,17.36
2022-11-01T12:50:22.115Z,17.38
2022-11-01T12:51:22.429Z,16.98
2022-11-01T12:52:22.736Z,16.96
2022-11-01T12:53:23.053Z,16.96
2022-11-01T12:54:23.399Z,16.96
2022-11-01T12:55:23.686Z,16.96
2022-11-01T12:56:24.001Z,16.96
2022-11-01T12:57:24.311Z,16.92
2022-11-01T12:58:24.632Z,16.88
2022-11-01T12:59:24.981Z,16.88
2022-11-01T13:00:25.195Z,16.90
2022-11-01T13:01:25.548Z,16.89
2022-11-01T13:02:25.844Z,16.88
2022-11-01T13:03:26.011Z,16.88
2022-11-01T13:04:31.197Z,16.88
2022-11-01T13:05:27.614Z,16.88
2022-11-01T13:06:26.827Z,16.81
2022-11-01T13:07:27.188Z,16.81
2022-11-01T13:08:27.502Z,16.88
2022-11-01T13:09:27.856Z,16.88